createdAt,value
2022-12-03T00:00:12.889Z,101865.22
2022-12-03T00:02:42.388Z,101861.63
2022-12-03T00:05:11.738Z,101867.44
2022-12-03T00:07:41.861Z,101856.59
2022-12-03T00:10:11.563Z,101862.59
2022-12-03T00:12:40.274Z,101868.44
2022-12-03T00:15:10.316Z,101871.72
2022-12-03T00:17:39.150Z,101865.97
2022-12-03T00:20:09.352Z,101865.06
2022-12-03T00:22:37.968Z,101862.63
2022-12-03T00:25:09.428Z,101864.03
2022-12-03T00:27:38.024Z,101865.34
2022-12-03T00:30:08.087Z,101860.94
2022-12-03T00:32:36.710Z,101850.00
2022-12-03T00:35:05.821Z,101856.84
2022-12-03T00:37:35.189Z,101848.59
2022-12-03T00:40:04.047Z,101849.88
2022-12-03T00:42:34.058Z,101855.31
2022-12-03T00:45:02.683Z,101844.50
2022-12-03T00:47:31.270Z,101842.91
2022-12-03T00:49:59.866Z,101850.50
2022-12-03T00:52:28.475Z,101849.16
2022-12-03T00:54:57.063Z,101856.34
2022-12-03T00:57:25.721Z,101855.66
2022-12-03T00:59:55.695Z,101851.13
2022-12-03T01:02:24.766Z,101850.00
2022-12-03T01:04:53.783Z,101853.06
2022-12-03T01:07:22.733Z,101846.56
2022-12-03T01:09:51.416Z,101854.72
2022-12-03T01:12:20.071Z,101852.19
2022-12-03T01:14:48.907Z,101858.22
2022-12-03T01:17:18.902Z,101859.28
2022-12-03T01:19:48.624Z,101866.06
2022-12-03T01:22:17.406Z,101854.81
2022-12-03T01:24:46.015Z,101860.78
2022-12-03T01:27:14.651Z,101861.69
2022-12-03T01:29:43.384Z,101863.00
2022-12-03T01:32:17.030Z,101852.63
2022-12-03T01:34:47.619Z,101858.38
2022-12-03T01:37:16.972Z,101856.72
2022-12-03T01:39:45.923Z,101864.59
2022-12-03T01:42:18.308Z,101851.34
2022-12-03T01:44:47.586Z,101854.81
2022-12-03T01:47:18.470Z,101863.47
2022-12-03T01:49:51.882Z,101854.84
2022-12-03T01:52:24.797Z,101848.66
2022-12-03T01:54:56.822Z,101850.44
2022-12-03T01:57:28.536Z,101853.34
2022-12-03T01:59:59.407Z,101848.69
2022-12-03T02:02:30.506Z,101849.44
2022-12-03T02:05:01.222Z,101847.50
2022-12-03T02:07:32.149Z,101848.28
2022-12-03T02:10:02.834Z,101846.03
2022-12-03T02:12:35.487Z,101845.09
2022-12-03T02:15:04.830Z,101843.47
2022-12-03T02:17:34.001Z,101846.31
2022-12-03T02:20:06.640Z,101844.88
2022-12-03T02:22:44.465Z,101842.31
2022-12-03T02:29:02.707Z,101834.31
2022-12-03T02:31:31.701Z,101839.81
2022-12-03T02:34:00.379Z,101831.88
2022-12-03T02:36:29.388Z,101829.16
2022-12-03T02:38:58.041Z,101826.59
2022-12-03T02:41:44.068Z,101823.69
2022-12-03T02:44:14.373Z,101814.91
2022-12-03T02:46:43.213Z,101820.06
2022-12-03T02:49:12.035Z,101816.34
2022-12-03T02:51:40.694Z,101819.16
2022-12-03T02:54:09.352Z,101817.50
2022-12-03T02:56:37.994Z,101814.97
2022-12-03T02:59:07.349Z,101807.00
2022-12-03T03:01:37.639Z,101811.56
2022-12-03T03:04:07.230Z,101807.41
2022-12-03T03:06:36.197Z,101814.03
2022-12-03T03:09:05.445Z,101814.38
2022-12-03T03:11:34.072Z,101818.41
2022-12-03T03:14:03.324Z,101818.56
2022-12-03T03:16:31.780Z,101807.59
2022-12-03T03:19:02.267Z,101809.78
2022-12-03T03:21:30.771Z,101806.78
2022-12-03T03:23:59.164Z,101809.19
2022-12-03T03:26:27.851Z,101800.97
2022-12-03T03:28:57.596Z,101806.94
2022-12-03T03:31:26.069Z,101806.28
2022-12-03T03:33:54.481Z,101806.44
2022-12-03T03:36:24.979Z,101809.25
2022-12-03T03:38:53.910Z,101808.13
2022-12-03T03:41:22.937Z,101804.47
2022-12-03T03:43:52.001Z,101810.53
2022-12-03T03:46:21.488Z,101807.41
2022-12-03T03:48:51.211Z,101802.34
2022-12-03T03:51:21.082Z,101806.41
2022-12-03T03:53:52.601Z,101803.31
2022-12-03T03:56:22.421Z,101806.88
2022-12-03T03:58:50.908Z,101805.91
2022-12-03T04:01:20.030Z,101804.03
2022-12-03T04:03:48.509Z,101801.03
2022-12-03T04:06:17.112Z,101806.75
2022-12-03T04:08:45.480Z,101794.28
2022-12-03T04:11:31.676Z,101806.19
2022-12-03T04:14:00.079Z,101792.75
2022-12-03T04:16:28.537Z,101787.78
2022-12-03T04:18:56.924Z,101790.22
2022-12-03T04:21:43.209Z,101794.78
2022-12-03T04:24:13.041Z,101785.84
2022-12-03T04:27:00.399Z,101788.13
2022-12-03T04:29:28.780Z,101800.41
2022-12-03T04:32:14.775Z,101792.97
2022-12-03T04:34:59.926Z,101787.91
2022-12-03T04:37:28.391Z,101780.09
2022-12-03T04:39:56.775Z,101776.03
2022-12-03T04:42:26.480Z,101779.59
2022-12-03T04:44:55.154Z,101782.84
2022-12-03T04:47:24.018Z,101786.16
2022-12-03T04:49:53.458Z,101780.44
2022-12-03T04:52:22.233Z,101774.88
2022-12-03T04:54:50.639Z,101772.41
2022-12-03T04:57:19.039Z,101766.38
2022-12-03T04:59:48.769Z,101775.34
2022-12-03T05:02:17.217Z,101772.84
2022-12-03T05:04:45.675Z,101780.81
2022-12-03T05:07:14.018Z,101783.19
2022-12-03T05:09:42.366Z,101780.56
2022-12-03T05:12:10.717Z,101778.69
2022-12-03T05:14:39.132Z,101777.81
2022-12-03T05:17:08.868Z,101779.56
2022-12-03T05:19:54.914Z,101779.44
2022-12-03T05:22:23.327Z,101774.63
2022-12-03T05:24:52.117Z,101777.03
2022-12-03T05:27:23.976Z,101775.75
2022-12-03T05:29:53.037Z,101778.22
2022-12-03T05:32:23.016Z,101777.72
2022-12-03T05:34:51.620Z,101767.81
2022-12-03T05:37:20.508Z,101763.81
2022-12-03T05:39:48.851Z,101767.91
2022-12-03T05:42:34.626Z,101768.75
2022-12-03T05:45:03.346Z,101770.66
2022-12-03T05:47:33.049Z,101768.81
2022-12-03T05:50:01.444Z,101769.09
2022-12-03T05:52:29.791Z,101774.88
2022-12-03T05:54:58.130Z,101769.28
2022-12-03T05:57:26.503Z,101761.69
2022-12-03T05:59:54.840Z,101772.56
2022-12-03T06:02:23.301Z,101771.22
2022-12-03T06:04:53.394Z,101767.31
2022-12-03T06:07:22.100Z,101770.75
2022-12-03T06:09:50.467Z,101774.66
2022-12-03T06:12:18.861Z,101767.03
2022-12-03T06:14:47.324Z,101773.25
2022-12-03T06:17:15.713Z,101769.81
2022-12-03T06:19:44.041Z,101761.63
2022-12-03T06:22:13.855Z,101768.22
2022-12-03T06:24:42.191Z,101765.06
2022-12-03T06:27:10.552Z,101756.06
2022-12-03T06:29:39.242Z,101763.44
2022-12-03T06:32:08.135Z,101766.78
2022-12-03T06:34:36.739Z,101763.47
2022-12-03T06:37:05.104Z,101764.28
2022-12-03T06:39:34.842Z,101753.94
2022-12-03T06:42:03.271Z,101758.50
2022-12-03T06:44:31.617Z,101747.78
2022-12-03T06:47:00.121Z,101753.22
2022-12-03T06:49:28.543Z,101745.75
2022-12-03T06:51:57.084Z,101757.88
2022-12-03T06:54:25.476Z,101754.03
2022-12-03T06:56:55.210Z,101759.41
2022-12-03T06:59:23.550Z,101751.72
2022-12-03T07:01:52.026Z,101754.28
2022-12-03T07:04:20.476Z,101759.75
2022-12-03T07:06:48.837Z,101765.03
2022-12-03T07:09:17.730Z,101769.31
2022-12-03T07:11:46.105Z,101764.38
2022-12-03T07:14:16.811Z,101761.47
2022-12-03T07:16:45.267Z,101755.50
2022-12-03T07:19:13.692Z,101757.53
2022-12-03T07:21:42.105Z,101757.75
2022-12-03T07:24:10.866Z,101757.31
2022-12-03T07:26:39.680Z,101761.97
2022-12-03T07:29:08.056Z,101759.22
2022-12-03T07:31:37.856Z,101759.41
2022-12-03T07:34:06.272Z,101766.59
2022-12-03T07:36:34.685Z,101755.84
2022-12-03T07:39:03.022Z,101760.00
2022-12-03T07:41:31.437Z,101765.16
2022-12-03T07:43:59.802Z,101763.97
2022-12-03T07:46:28.264Z,101760.25
2022-12-03T07:48:58.035Z,101765.47
2022-12-03T07:51:31.927Z,101766.28
2022-12-03T07:54:00.766Z,101760.69
2022-12-03T07:56:29.145Z,101755.84
2022-12-03T07:58:57.702Z,101752.03
2022-12-03T08:01:26.219Z,101754.28
2022-12-03T08:03:54.719Z,101746.16
2022-12-03T08:06:24.467Z,101754.09
2022-12-03T08:08:52.846Z,101753.03
2022-12-03T08:11:21.282Z,101755.81
2022-12-03T08:13:49.747Z,101762.69
2022-12-03T08:16:20.883Z,101762.59
2022-12-03T08:18:51.047Z,101760.81
2022-12-03T08:21:23.289Z,101760.44
2022-12-03T08:23:51.676Z,101755.13
2022-12-03T08:26:25.548Z,101763.69
2022-12-03T08:28:54.578Z,101766.41
2022-12-03T08:31:32.418Z,101762.47
2022-12-03T08:34:17.577Z,101751.75
2022-12-03T08:36:48.879Z,101757.50
2022-12-03T08:39:31.457Z,101758.75
2022-12-03T08:42:27.830Z,101758.69
2022-12-03T08:44:56.590Z,101764.34
2022-12-03T08:47:26.103Z,101766.25
2022-12-03T08:49:59.882Z,101756.38
2022-12-03T08:52:34.242Z,101755.00
2022-12-03T08:55:33.047Z,101760.56
2022-12-03T08:58:01.477Z,101770.81
2022-12-03T09:00:29.896Z,101773.94
2022-12-03T09:03:02.312Z,101767.94
2022-12-03T09:05:33.527Z,101766.56
2022-12-03T09:08:03.356Z,101769.41
2022-12-03T09:10:31.763Z,101764.38
2022-12-03T09:13:00.140Z,101769.03
2022-12-03T09:15:28.826Z,101766.06
2022-12-03T09:17:57.239Z,101768.44
2022-12-03T09:20:25.587Z,101771.94
2022-12-03T09:22:53.957Z,101778.88
2022-12-03T09:25:23.742Z,101770.28
2022-12-03T09:27:52.214Z,101766.66
2022-12-03T09:30:20.863Z,101761.97
2022-12-03T09:32:49.237Z,101762.53
2022-12-03T09:35:17.892Z,101770.63
2022-12-03T09:37:46.315Z,101768.66
2022-12-03T09:40:15.907Z,101776.84
2022-12-03T09:42:46.055Z,101771.50
2022-12-03T09:45:16.097Z,101771.63
2022-12-03T09:47:48.823Z,101784.28
2022-12-03T09:50:21.966Z,101765.88
2022-12-03T09:52:51.141Z,101763.16
2022-12-03T09:55:24.417Z,101759.94
2022-12-03T09:57:55.835Z,101750.16
2022-12-03T10:00:27.417Z,101750.47
2022-12-03T10:02:59.173Z,101748.66
2022-12-03T10:05:27.661Z,101749.16
2022-12-03T10:08:04.277Z,101748.63
2022-12-03T10:10:32.745Z,101745.06
2022-12-03T10:13:02.853Z,101744.53
2022-12-03T10:15:31.409Z,101738.34
2022-12-03T10:18:18.304Z,101748.25
2022-12-03T10:20:46.927Z,101741.13
2022-12-03T10:23:23.031Z,101730.13
2022-12-03T10:25:55.119Z,101727.41
2022-12-03T10:28:34.504Z,101722.22
2022-12-03T10:31:06.263Z,101715.34
2022-12-03T10:33:38.161Z,101716.31
2022-12-03T10:36:23.332Z,101717.22
2022-12-03T10:39:11.066Z,101705.28
2022-12-03T10:41:40.486Z,101707.97
2022-12-03T10:44:20.451Z,101696.56
2022-12-03T10:47:10.689Z,101698.78
2022-12-03T10:49:39.465Z,101692.06
2022-12-03T10:52:22.573Z,101685.94
2022-12-03T10:54:53.997Z,101675.88
2022-12-03T10:57:23.541Z,101668.16
2022-12-03T10:59:53.318Z,101679.75
2022-12-03T11:02:25.571Z,101681.66
2022-12-03T11:04:54.863Z,101673.97
2022-12-03T11:07:25.143Z,101677.44
2022-12-03T11:09:55.880Z,101675.53
2022-12-03T11:12:27.480Z,101662.88
2022-12-03T11:15:15.049Z,101666.94
2022-12-03T11:17:48.059Z,101668.31
2022-12-03T11:21:06.872Z,101664.44
2022-12-03T11:24:04.727Z,101663.78
2022-12-03T11:27:24.344Z,101665.09
2022-12-03T11:29:59.766Z,101664.88
2022-12-03T11:33:03.021Z,101663.16
2022-12-03T11:36:15.387Z,101656.47
2022-12-03T11:38:54.306Z,101648.28
2022-12-03T11:42:03.763Z,101649.72
2022-12-03T11:44:33.846Z,101637.09
2022-12-03T11:47:13.811Z,101636.72
2022-12-03T11:49:49.948Z,101639.69
2022-12-03T11:52:32.428Z,101634.50
2022-12-03T11:55:06.266Z,101631.31
2022-12-03T11:57:38.116Z,101637.28
2022-12-03T12:00:25.157Z,101628.19
2022-12-03T12:02:55.556Z,101625.34
2022-12-03T12:05:32.572Z,101618.56
2022-12-03T12:08:03.078Z,101620.47
2022-12-03T12:10:46.862Z,101613.50
2022-12-03T12:13:49.372Z,101618.50
2022-12-03T12:16:41.384Z,101610.13
2022-12-03T12:19:36.375Z,101600.31
2022-12-03T12:22:36.614Z,101601.06
2022-12-03T12:25:07.051Z,101592.72
2022-12-03T12:27:39.369Z,101601.28
2022-12-03T12:30:11.265Z,101594.41
2022-12-03T12:32:47.653Z,101585.44
2022-12-03T12:35:20.794Z,101596.78
2022-12-03T12:37:58.988Z,101580.06
2022-12-03T12:40:32.009Z,101584.50
2022-12-03T12:43:08.494Z,101584.25
2022-12-03T12:45:43.778Z,101589.56
2022-12-03T12:48:22.496Z,101576.84
2022-12-03T12:50:59.304Z,101579.78
2022-12-03T12:53:31.811Z,101580.09
2022-12-03T12:56:02.935Z,101573.03
2022-12-03T12:58:34.277Z,101575.53
2022-12-03T13:01:07.519Z,101582.81
2022-12-03T13:03:40.212Z,101579.53
2022-12-03T13:06:16.188Z,101588.34
2022-12-03T13:08:48.536Z,101576.28
2022-12-03T13:11:37.053Z,101571.03
2022-12-03T13:14:14.407Z,101562.25
2022-12-03T13:16:43.140Z,101563.88
2022-12-03T13:19:23.741Z,101557.00
2022-12-03T13:21:53.622Z,101557.75
2022-12-03T13:24:35.214Z,101563.06
2022-12-03T13:27:22.699Z,101563.44
2022-12-03T13:29:56.088Z,101552.38
2022-12-03T13:32:31.011Z,101555.28
2022-12-03T13:35:08.607Z,101545.38
2022-12-03T13:37:37.986Z,101546.31
2022-12-03T13:40:21.822Z,101544.78
2022-12-03T13:42:50.276Z,101551.66
2022-12-03T13:45:33.182Z,101539.59
2022-12-03T13:48:04.249Z,101540.25
2022-12-03T13:50:37.702Z,101530.44
2022-12-03T13:53:16.461Z,101533.88
2022-12-03T13:55:48.736Z,101541.94
2022-12-03T13:58:17.075Z,101530.81
2022-12-03T14:00:45.494Z,101534.91
2022-12-03T14:03:13.989Z,101538.69
2022-12-03T14:05:42.332Z,101538.19
2022-12-03T14:08:10.728Z,101536.44
2022-12-03T14:10:39.158Z,101527.63
2022-12-03T14:13:08.923Z,101533.94
2022-12-03T14:15:37.386Z,101530.22
2022-12-03T14:18:05.826Z,101526.81
2022-12-03T14:20:35.044Z,101524.50
2022-12-03T14:23:03.395Z,101523.41
2022-12-03T14:25:31.775Z,101520.97
2022-12-03T14:28:00.805Z,101522.19
2022-12-03T14:30:30.556Z,101525.69
2022-12-03T14:32:58.935Z,101522.81
2022-12-03T14:35:27.455Z,101520.06
2022-12-03T14:37:55.865Z,101523.78
2022-12-03T14:40:24.314Z,101524.84
2022-12-03T14:42:52.647Z,101530.75
2022-12-03T14:45:23.046Z,101534.44
2022-12-03T14:47:52.738Z,101521.84
2022-12-03T14:50:21.128Z,101522.31
2022-12-03T14:52:49.573Z,101521.09
2022-12-03T14:55:18.096Z,101529.19
2022-12-03T14:57:46.533Z,101523.91
2022-12-03T15:00:16.311Z,101528.63
2022-12-03T15:02:44.733Z,101530.44
2022-12-03T15:05:14.471Z,101522.97
2022-12-03T15:07:42.882Z,101520.28
2022-12-03T15:10:12.125Z,101522.22
2022-12-03T15:12:40.502Z,101518.78
2022-12-03T15:15:10.375Z,101526.16
2022-12-03T15:17:38.755Z,101523.38
2022-12-03T15:20:09.228Z,101522.38
2022-12-03T15:22:39.011Z,101518.25
2022-12-03T15:25:08.726Z,101518.59
2022-12-03T15:27:37.726Z,101522.53
2022-12-03T15:30:08.385Z,101527.56
2022-12-03T15:32:36.737Z,101524.97
2022-12-03T15:35:05.374Z,101529.22
2022-12-03T15:37:33.774Z,101515.25
2022-12-03T15:40:03.536Z,101514.84
2022-12-03T15:42:31.903Z,101514.22
2022-12-03T15:45:00.231Z,101512.41
2022-12-03T15:47:28.628Z,101521.81
2022-12-03T15:49:57.075Z,101520.88
2022-12-03T15:52:25.499Z,101514.97
2022-12-03T15:54:55.201Z,101513.50
2022-12-03T15:57:24.996Z,101518.50
2022-12-03T15:59:54.514Z,101516.81
2022-12-03T16:02:23.134Z,101526.72
2022-12-03T16:04:51.547Z,101532.41
2022-12-03T16:07:19.929Z,101527.13
2022-12-03T16:09:48.308Z,101527.88
2022-12-03T16:12:16.694Z,101529.88
2022-12-03T16:14:46.578Z,101525.59
2022-12-03T16:17:14.971Z,101522.59
2022-12-03T16:19:43.403Z,101519.47
2022-12-03T16:22:11.809Z,101518.38
2022-12-03T16:24:40.226Z,101514.53
2022-12-03T16:27:08.922Z,101525.88
2022-12-03T16:29:37.423Z,101515.28
2022-12-03T16:32:07.423Z,101515.34
2022-12-03T16:34:35.764Z,101517.44
2022-12-03T16:37:04.824Z,101513.97
2022-12-03T16:39:33.381Z,101508.53
2022-12-03T16:42:01.735Z,101511.91
2022-12-03T16:44:43.765Z,101508.66
2022-12-03T16:47:13.514Z,101507.16
2022-12-03T16:49:41.852Z,101506.34
2022-12-03T16:52:10.178Z,101507.41
2022-12-03T16:54:38.535Z,101514.22
2022-12-03T16:57:06.891Z,101512.78
2022-12-03T16:59:35.456Z,101511.75
2022-12-03T17:02:03.910Z,101510.81
2022-12-03T17:04:33.704Z,101511.06
2022-12-03T17:07:02.267Z,101511.16
2022-12-03T17:09:30.643Z,101508.16
2022-12-03T17:11:59.034Z,101506.06
2022-12-03T17:14:33.073Z,101507.03
2022-12-03T17:17:02.126Z,101501.72
2022-12-03T17:19:30.740Z,101513.31
2022-12-03T17:22:00.775Z,101504.81
2022-12-03T17:24:29.458Z,101502.63
2022-12-03T17:26:57.897Z,101508.47
2022-12-03T17:29:26.298Z,101496.53
2022-12-03T17:31:54.760Z,101495.13
2022-12-03T17:34:23.238Z,101497.41
2022-12-03T17:36:51.584Z,101514.22
2022-12-03T17:39:21.335Z,101500.47
2022-12-03T17:41:49.740Z,101501.06
2022-12-03T17:44:33.875Z,101491.47
2022-12-03T17:47:02.286Z,101489.94
2022-12-03T17:49:31.820Z,101493.69
2022-12-03T17:52:01.062Z,101489.28
2022-12-03T17:54:55.309Z,101485.13
2022-12-03T17:57:19.201Z,101488.63
2022-12-03T17:59:47.551Z,101483.16
2022-12-03T18:02:15.981Z,101485.91
2022-12-03T18:04:44.455Z,101475.16
2022-12-03T18:07:12.749Z,101476.81
2022-12-03T18:09:42.669Z,101475.75
2022-12-03T18:12:10.970Z,101478.31
2022-12-03T18:14:39.339Z,101474.88
2022-12-03T18:17:07.700Z,101468.38
2022-12-03T18:19:36.016Z,101470.28
2022-12-03T18:22:04.368Z,101461.09
2022-12-03T18:24:32.729Z,101466.84
2022-12-03T18:27:02.544Z,101456.19
2022-12-03T18:29:31.175Z,101465.50
2022-12-03T18:31:59.855Z,101461.81
2022-12-03T18:34:28.634Z,101471.53
2022-12-03T18:36:57.308Z,101466.56
2022-12-03T18:39:30.852Z,101468.00
2022-12-03T18:41:59.426Z,101459.94
2022-12-03T18:44:29.967Z,101450.44
2022-12-03T18:46:59.191Z,101448.72
2022-12-03T18:49:27.737Z,101453.06
2022-12-03T18:51:59.612Z,101451.47
2022-12-03T18:54:28.242Z,101449.78
2022-12-03T18:56:56.651Z,101449.66
2022-12-03T18:59:25.005Z,101448.81
2022-12-03T19:01:54.888Z,101458.56
2022-12-03T19:04:23.368Z,101456.59
2022-12-03T19:06:51.806Z,101457.03
2022-12-03T19:09:20.320Z,101461.94
2022-12-03T19:11:48.713Z,101458.59
2022-12-03T19:14:17.415Z,101461.47
2022-12-03T19:16:45.881Z,101454.91
2022-12-03T19:19:15.629Z,101468.34
2022-12-03T19:21:43.998Z,101462.72
2022-12-03T19:24:27.529Z,101459.09
2022-12-03T19:26:56.007Z,101459.03
2022-12-03T19:29:24.743Z,101458.00
2022-12-03T19:31:53.507Z,101456.97
2022-12-03T19:34:23.295Z,101454.16
2022-12-03T19:36:51.666Z,101453.81
2022-12-03T19:39:20.061Z,101452.50
2022-12-03T19:41:48.436Z,101460.91
2022-12-03T19:44:18.802Z,101468.56
2022-12-03T19:46:47.439Z,101458.03
2022-12-03T19:49:16.744Z,101457.72
2022-12-03T19:51:46.513Z,101455.78
2022-12-03T19:54:15.491Z,101462.22
2022-12-03T19:56:44.323Z,101468.31
2022-12-03T19:59:13.486Z,101461.28
2022-12-03T20:01:43.466Z,101459.28
2022-12-03T20:04:13.389Z,101458.56
2022-12-03T20:06:42.372Z,101455.63
2022-12-03T20:09:17.668Z,101461.28
2022-12-03T20:11:46.377Z,101469.94
2022-12-03T20:14:16.649Z,101460.16
2022-12-03T20:16:45.740Z,101455.16
2022-12-03T20:19:17.366Z,101465.84
2022-12-03T20:21:46.161Z,101464.50
2022-12-03T20:24:19.295Z,101458.78
2022-12-03T20:26:47.682Z,101464.25
2022-12-03T20:29:16.090Z,101461.47
2022-12-03T20:31:44.587Z,101454.13
2022-12-03T20:34:13.106Z,101461.66
2022-12-03T20:36:42.858Z,101453.66
2022-12-03T20:39:12.494Z,101456.00
2022-12-03T20:41:42.209Z,101456.81
2022-12-03T20:44:10.535Z,101448.97
2022-12-03T20:46:38.956Z,101460.16
2022-12-03T20:49:07.377Z,101454.03
2022-12-03T20:51:35.768Z,101439.97
2022-12-03T20:54:04.535Z,101452.75
2022-12-03T20:56:35.737Z,101444.47
2022-12-03T20:59:08.564Z,101445.53
2022-12-03T21:01:38.559Z,101452.66
2022-12-03T21:04:08.888Z,101439.72
2022-12-03T21:06:38.301Z,101447.59
2022-12-03T21:09:07.728Z,101437.47
2022-12-03T21:11:39.086Z,101439.34
2022-12-03T21:14:09.500Z,101427.22
2022-12-03T21:17:07.306Z,101434.00
2022-12-03T21:19:28.066Z,101431.66
2022-12-03T21:21:56.719Z,101438.97
2022-12-03T21:24:25.543Z,101438.59
2022-12-03T21:26:54.477Z,101431.91
2022-12-03T21:29:24.645Z,101444.34
2022-12-03T21:31:53.332Z,101428.88
2022-12-03T21:34:22.009Z,101429.56
2022-12-03T21:36:50.656Z,101429.81
2022-12-03T21:39:19.960Z,101423.97
2022-12-03T21:42:33.402Z,101426.84
2022-12-03T21:44:39.516Z,101426.00
2022-12-03T21:47:13.954Z,101432.81
2022-12-03T21:49:43.394Z,101437.69
2022-12-03T21:52:12.103Z,101436.53
2022-12-03T21:54:40.799Z,101437.88
2022-12-03T21:57:09.473Z,101441.69
2022-12-03T21:59:39.542Z,101437.59
2022-12-03T22:02:08.725Z,101437.78
2022-12-03T22:04:37.449Z,101432.03
2022-12-03T22:07:06.987Z,101432.53
2022-12-03T22:09:35.798Z,101426.34
2022-12-03T22:12:04.537Z,101423.44
2022-12-03T22:14:33.180Z,101422.03
2022-12-03T22:17:03.001Z,101415.50
2022-12-03T22:19:31.545Z,101422.06
2022-12-03T22:21:59.954Z,101415.69
2022-12-03T22:24:28.306Z,101423.81
2022-12-03T22:26:56.780Z,101419.38
2022-12-03T22:29:25.189Z,101411.94
2022-12-03T22:31:53.627Z,101412.03
2022-12-03T22:34:23.405Z,101405.38
2022-12-03T22:36:51.789Z,101405.44
2022-12-03T22:39:20.246Z,101409.53
2022-12-03T22:41:48.624Z,101400.78
2022-12-03T22:44:17.007Z,101403.63
2022-12-03T22:46:45.418Z,101400.13
2022-12-03T22:49:14.679Z,101399.47
2022-12-03T22:51:46.357Z,101404.91
2022-12-03T22:54:18.315Z,101395.44
2022-12-03T22:56:50.789Z,101393.38
2022-12-03T22:59:19.250Z,101390.47
2022-12-03T23:01:47.895Z,101394.41
2022-12-03T23:04:16.314Z,101396.31
2022-12-03T23:06:46.118Z,101379.94
2022-12-03T23:09:14.677Z,101395.25
2022-12-03T23:11:45.456Z,101387.25
2022-12-03T23:14:14.124Z,101376.94
2022-12-03T23:16:42.542Z,101388.19
2022-12-03T23:19:10.923Z,101383.13
2022-12-03T23:21:39.356Z,101387.25
2022-12-03T23:24:09.308Z,101388.38
2022-12-03T23:26:39.605Z,101383.50
2022-12-03T23:29:08.645Z,101392.84
2022-12-03T23:31:37.480Z,101386.34
2022-12-03T23:34:06.618Z,101384.72
2022-12-03T23:36:36.125Z,101376.63
2022-12-03T23:39:05.027Z,101385.81
2022-12-03T23:41:34.785Z,101375.19
2022-12-03T23:44:03.165Z,101363.09
2022-12-03T23:46:31.674Z,101367.38
2022-12-03T23:49:00.702Z,101366.34
2022-12-03T23:51:29.131Z,101358.09
2022-12-03T23:53:58.297Z,101361.78
2022-12-03T23:56:35.733Z,101374.84
2022-12-03T23:59:06.078Z,101366.38
